Time;durP1;ratioP1;P1;durP2;ratioP2;P2;SDS_P1;SDS_P2;PMS_P1;PMS_P2;Temp;Humidity;BMP_temperature;BMP_pressure;BME280_temperature;BME280_humidity;BME280_pressure;Samples;Min_cycle;Max_cycle;Signal;HPM_P1;HPM_P2
2023/10/19 00:40:19;;;;;;;;;;;;;;;;;;5058629;27;19928;-64
2023/10/19 00:42:49;;;;;;;;;;;;;;;;;;5052831;28;20339;-62
2023/10/19 00:45:15;;;;;;;;;;;;;;;;;;5039069;28;20040;-62
2023/10/19 00:47:42;;;;;;;;;;;;;;;;;;5038364;28;19959;-61
2023/10/19 00:50:16;;;;;;;;;;;;;;;;;;5039389;28;19983;-65
2023/10/19 00:52:49;;;;;;;;;;;;;;;;;;5038876;28;19925;-67
2023/10/19 00:55:15;;;;;;;;;;;;;;;;;;5038930;28;19960;-68
2023/10/19 00:57:42;;;;;;;;;;;;;;;;;;5039704;28;19951;-65
2023/10/19 01:00:11;;;;;;;;;;;;;;;;;;5035407;28;19929;-64
2023/10/19 01:02:43;;;;;;;;;;;;;;;;;;5037881;28;20327;-64
2023/10/19 01:05:13;;;;;;;;;;;;;;;;;;5039398;28;19929;-62
2023/10/19 01:07:39;;;;;;;;;;;;;;;;;;5037153;28;20305;-63
2023/10/19 01:10:08;;;;;;;;;;;;;;;;;;5039045;28;19927;-63
2023/10/19 01:12:40;;;;;;;;;;;;;;;;;;5042103;28;19920;-64
2023/10/19 01:15:13;;;;;;;;;;;;;;;;;;5039077;28;21535;-63
2023/10/19 01:17:39;;;;;;;;;;;;;;;;;;5042238;28;20365;-63
2023/10/19 01:20:13;;;;;;;;;;;;;;;;;;5037437;28;19983;-63
2023/10/19 01:22:40;;;;;;;;;;;;;;;;;;5037936;28;19925;-64
2023/10/19 01:25:10;;;;;;;;;;;;;;;;;;5038571;28;19927;-63
2023/10/19 01:27:38;;;;;;;;;;;;;;;;;;5037441;28;19921;-65
2023/10/19 01:30:05;;;;;;;;;;;;;;;;;;5038141;28;19932;-62
2023/10/19 01:32:31;;;;;;;;;;;;;;;;;;5037488;28;19925;-63
2023/10/19 01:34:57;;;;;;;;;;;;;;;;;;5037618;28;20352;-65
2023/10/19 01:37:23;;;;;;;;;;;;;;;;;;5038057;28;19925;-63
2023/10/19 01:39:50;;;;;;;;;;;;;;;;;;5038729;28;21450;-63
2023/10/19 01:42:17;;;;;;;;;;;;;;;;;;5038053;28;20119;-62
2023/10/19 01:44:43;;;;;;;;;;;;;;;;;;5038287;28;19963;-63
2023/10/19 01:47:10;;;;;;;;;;;;;;;;;;5038195;28;19925;-63
2023/10/19 01:49:37;;;;;;;;;;;;;;;;;;5035562;28;19979;-65
2023/10/19 01:52:04;;;;;;;;;;;;;;;;;;5030779;28;20025;-64
2023/10/19 01:54:30;;;;;;;;;;;;;;;;;;5038128;28;19985;-64
2023/10/19 01:56:56;;;;;;;;;;;;;;;;;;5046350;28;19928;-66
2023/10/19 01:59:22;;;;;;;;;;;;;;;;;;5043773;28;19929;-65
2023/10/19 02:01:49;;;;;;;;;;;;;;;;;;5043168;28;19964;-64
2023/10/19 02:04:15;;;;;;;;;;;;;;;;;;5034269;28;19968;-65
2023/10/19 02:07:01;;;;;;;;;;;;;;;;;;5035657;28;19925;-66
2023/10/19 02:09:29;;;;;;;;;;;;;;;;;;5036323;28;19925;-64
2023/10/19 02:11:58;;;;;;;;;;;;;;;;;;5033837;28;20317;-63
2023/10/19 02:14:30;;;;;;;;;;;;;;;;;;5034916;28;20345;-64
2023/10/19 02:16:59;;;;;;;;;;;;;;;;;;5035256;28;19931;-62
2023/10/19 21:15:43;;;;;;;;;;;;;;;;;;5058087;27;20695;-27
2023/10/19 21:20:26;;;;;;;;;;;;;;;;;;5026115;27;19928;-61
2023/10/19 21:22:54;;;;;;;;;;;;;;;;;;5051998;28;19924;-61
2023/10/19 21:25:20;;;;;;;;;;;;;;;;;;5044033;28;20713;-61
2023/10/19 21:27:49;;;;;;;;;;;;;;;;;;5042695;28;19921;-61
2023/10/19 21:30:16;;;;;;;;;;;;;;;;;;5013779;28;19924;-58
2023/10/19 21:35:10;;;;;;;;;;;;;;;;;;4965458;27;81879;-61
2023/10/19 21:41:18;;;;;;;;;;;;;;;;;;4985355;28;19929;-40
2023/10/19 21:43:44;;;;;;;;;;;;;;;;;;4965440;28;19956;-40
2023/10/19 21:49:33;;;;;;;;;;;;;;;;;;4772766;28;65019;-41
2023/10/19 21:52:43;;;;;;;;;;;;;;;;;;4959644;27;19974;-36
2023/10/19 21:57:39;;;;;;;;;;;;;;;;;;4827958;27;19933;-42
2023/10/19 22:03:47;;;;;;;;;;;;;;;;;;4953907;27;19940;-34
2023/10/19 22:08:02;;;;;;;;;;;;;;;;;;4990740;27;19939;-30
